createdAt,value
2022-12-06T00:01:08.945Z,22.55
2022-12-06T00:03:37.814Z,22.55
2022-12-06T00:06:09.613Z,22.54
2022-12-06T00:08:38.176Z,22.55
2022-12-06T00:11:07.918Z,22.54
2022-12-06T00:13:36.366Z,22.54
2022-12-06T00:16:05.503Z,22.54
2022-12-06T00:18:36.177Z,22.54
2022-12-06T00:21:09.617Z,22.54
2022-12-06T00:23:38.845Z,22.53
2022-12-06T00:26:08.012Z,22.53
2022-12-06T00:28:36.457Z,22.53
2022-12-06T00:31:06.818Z,22.53
2022-12-06T00:33:37.104Z,22.53
2022-12-06T00:36:07.148Z,22.53
2022-12-06T00:38:36.558Z,22.53
2022-12-06T00:41:06.568Z,22.53
2022-12-06T00:43:35.261Z,22.52
2022-12-06T00:46:04.486Z,22.52
2022-12-06T00:48:32.927Z,22.50
2022-12-06T00:51:02.695Z,22.52
2022-12-06T00:53:31.250Z,22.51
2022-12-06T00:55:59.607Z,22.53
2022-12-06T00:58:28.021Z,22.52
2022-12-06T01:00:56.621Z,22.52
2022-12-06T01:03:25.127Z,22.52
2022-12-06T01:05:53.546Z,22.51
2022-12-06T01:08:23.448Z,22.50
2022-12-06T01:10:55.024Z,22.52
2022-12-06T01:13:23.480Z,22.50
2022-12-06T01:15:52.017Z,22.50
2022-12-06T01:18:20.463Z,22.52
2022-12-06T01:20:49.108Z,22.52
2022-12-06T01:23:17.575Z,22.50
2022-12-06T01:25:52.634Z,22.51
2022-12-06T01:28:21.266Z,22.51
2022-12-06T01:30:49.946Z,22.52
2022-12-06T01:33:18.384Z,22.49
2022-12-06T01:35:46.917Z,22.52
2022-12-06T01:38:15.348Z,22.50
2022-12-06T01:40:45.988Z,22.51
2022-12-06T01:43:36.562Z,22.52
2022-12-06T01:46:12.462Z,22.52
2022-12-06T01:48:41.467Z,22.52
2022-12-06T01:51:10.555Z,22.51
2022-12-06T01:53:39.076Z,22.51
2022-12-06T01:56:08.530Z,22.50
2022-12-06T01:58:40.780Z,22.50
2022-12-06T02:01:09.690Z,22.52
2022-12-06T02:03:38.294Z,22.50
2022-12-06T02:06:08.370Z,22.52
2022-12-06T02:08:37.288Z,22.50
2022-12-06T02:11:05.768Z,22.51
2022-12-06T02:13:34.987Z,22.51
2022-12-06T02:16:14.954Z,22.51
2022-12-06T02:18:48.627Z,22.52
2022-12-06T02:21:22.107Z,22.51
2022-12-06T02:24:23.528Z,22.50
2022-12-06T02:26:53.082Z,22.51
2022-12-06T02:29:39.410Z,22.50
2022-12-06T02:32:11.445Z,22.50
2022-12-06T02:34:45.544Z,22.50
2022-12-06T02:37:16.072Z,22.49
2022-12-06T02:39:48.033Z,22.50
2022-12-06T02:42:18.973Z,22.50
2022-12-06T02:44:48.988Z,22.50
2022-12-06T02:47:19.885Z,22.49
2022-12-06T02:49:50.190Z,22.50
2022-12-06T02:52:19.802Z,22.50
2022-12-06T02:54:48.967Z,22.50
2022-12-06T02:57:17.483Z,22.50
2022-12-06T02:59:55.359Z,22.49
2022-12-06T03:02:25.534Z,22.50
2022-12-06T03:05:10.435Z,22.48
2022-12-06T03:07:41.728Z,22.48
2022-12-06T03:10:23.923Z,22.50
2022-12-06T03:12:57.551Z,22.49
2022-12-06T03:15:34.449Z,22.49
2022-12-06T03:18:09.520Z,22.50
2022-12-06T03:20:43.079Z,22.49
2022-12-06T03:23:14.711Z,22.49
2022-12-06T03:25:43.440Z,22.49
2022-12-06T03:28:13.091Z,22.49
2022-12-06T03:30:41.666Z,22.49
2022-12-06T03:33:11.661Z,22.49
2022-12-06T03:35:40.058Z,22.49
2022-12-06T03:38:10.380Z,22.49
2022-12-06T03:40:40.501Z,22.49
2022-12-06T03:43:08.964Z,22.48
2022-12-06T03:45:40.927Z,22.48
2022-12-06T03:48:12.347Z,22.49
2022-12-06T03:50:43.014Z,22.49
2022-12-06T03:53:11.512Z,22.49
2022-12-06T03:55:39.922Z,22.48
2022-12-06T03:58:08.261Z,22.49
2022-12-06T04:00:36.722Z,22.49
2022-12-06T04:03:05.225Z,22.48
2022-12-06T04:05:35.122Z,22.49
2022-12-06T04:08:03.676Z,22.49
2022-12-06T04:10:32.085Z,22.48
2022-12-06T04:13:03.057Z,22.49
2022-12-06T04:15:33.669Z,22.47
2022-12-06T04:18:18.621Z,22.48
2022-12-06T04:21:07.596Z,22.47
2022-12-06T04:23:37.418Z,22.48
2022-12-06T04:26:07.314Z,22.48
2022-12-06T04:28:52.922Z,22.47
2022-12-06T04:31:39.425Z,22.48
2022-12-06T04:34:25.219Z,22.47
2022-12-06T04:37:12.634Z,22.48
2022-12-06T04:39:41.093Z,22.47
2022-12-06T04:42:27.392Z,22.48
2022-12-06T04:44:55.774Z,22.46
2022-12-06T04:47:24.462Z,22.47
2022-12-06T04:49:53.467Z,22.47
2022-12-06T04:52:23.370Z,22.46
2022-12-06T04:54:51.859Z,22.48
2022-12-06T04:57:20.361Z,22.47
2022-12-06T04:59:49.452Z,22.47
2022-12-06T05:02:17.928Z,22.47
2022-12-06T05:04:46.424Z,22.47
2022-12-06T05:07:14.908Z,22.47
2022-12-06T05:09:44.799Z,22.48
2022-12-06T05:12:13.189Z,22.48
2022-12-06T05:14:41.597Z,22.47
2022-12-06T05:17:10.128Z,22.47
2022-12-06T05:19:38.524Z,22.47
2022-12-06T05:22:07.027Z,22.46
2022-12-06T05:24:35.791Z,22.48
2022-12-06T05:27:05.690Z,22.47
2022-12-06T05:29:34.184Z,22.47
2022-12-06T05:32:02.706Z,22.47
2022-12-06T05:34:31.146Z,22.46
2022-12-06T05:36:59.553Z,22.47
2022-12-06T05:39:29.340Z,22.46
2022-12-06T05:41:57.743Z,22.45
2022-12-06T05:44:27.547Z,22.46
2022-12-06T05:46:56.279Z,22.46
2022-12-06T05:49:24.700Z,22.46
2022-12-06T05:51:53.100Z,22.46
2022-12-06T05:54:21.768Z,22.46
2022-12-06T05:56:50.760Z,22.46
2022-12-06T05:59:19.208Z,22.45
2022-12-06T06:01:49.224Z,22.46
2022-12-06T06:04:17.637Z,22.45
2022-12-06T06:06:45.988Z,22.45
2022-12-06T06:09:14.613Z,22.46
2022-12-06T06:11:43.042Z,22.45
2022-12-06T06:14:11.685Z,22.45
2022-12-06T06:16:40.196Z,22.45
2022-12-06T06:19:09.981Z,22.46
2022-12-06T06:21:38.337Z,22.45
2022-12-06T06:24:08.015Z,22.45
2022-12-06T06:26:36.409Z,22.45
2022-12-06T06:29:04.897Z,22.45
2022-12-06T06:31:33.385Z,22.46
2022-12-06T06:34:01.901Z,22.45
2022-12-06T06:36:31.761Z,22.45
2022-12-06T06:39:00.269Z,22.45
2022-12-06T06:41:28.645Z,22.45
2022-12-06T06:43:58.792Z,22.45
2022-12-06T06:46:27.445Z,22.45
2022-12-06T06:48:55.817Z,22.44
2022-12-06T06:51:24.387Z,22.45
2022-12-06T06:53:54.128Z,22.45
2022-12-06T06:56:22.444Z,22.46
2022-12-06T06:58:51.298Z,22.48
2022-12-06T07:01:22.192Z,22.48
2022-12-06T07:03:50.930Z,22.47
2022-12-06T07:06:19.338Z,22.45
2022-12-06T07:08:47.976Z,22.45
2022-12-06T07:11:17.743Z,22.47
2022-12-06T07:13:51.249Z,22.48
2022-12-06T07:16:21.294Z,22.50
2022-12-06T07:18:49.762Z,22.51
2022-12-06T07:21:18.313Z,22.48
2022-12-06T07:23:46.871Z,22.48
2022-12-06T07:26:18.459Z,22.47
2022-12-06T07:28:48.051Z,22.47
2022-12-06T07:31:18.324Z,22.46
2022-12-06T07:33:47.057Z,22.50
2022-12-06T07:36:16.443Z,22.50
2022-12-06T07:38:44.993Z,22.51
2022-12-06T07:41:32.186Z,22.49
2022-12-06T07:44:20.621Z,22.50
2022-12-06T07:46:50.030Z,22.50
2022-12-06T07:49:19.120Z,22.51
2022-12-06T07:51:47.651Z,22.52
2022-12-06T07:54:16.774Z,22.52
2022-12-06T07:56:45.353Z,22.48
2022-12-06T07:59:15.367Z,22.49
2022-12-06T08:01:43.884Z,22.47
2022-12-06T08:04:12.523Z,22.47
2022-12-06T08:06:41.118Z,22.48
2022-12-06T08:09:09.919Z,22.50
2022-12-06T08:11:38.368Z,22.51
2022-12-06T08:14:06.968Z,22.50
2022-12-06T08:16:36.738Z,22.52
2022-12-06T08:19:05.191Z,22.54
2022-12-06T08:21:33.823Z,22.53
2022-12-06T08:24:04.256Z,22.53
2022-12-06T08:26:32.643Z,22.54
2022-12-06T08:29:02.274Z,22.52
2022-12-06T08:31:31.559Z,22.54
2022-12-06T08:34:01.329Z,22.55
2022-12-06T08:36:29.780Z,22.55
2022-12-06T08:38:59.846Z,22.56
2022-12-06T08:41:45.547Z,22.56
2022-12-06T08:44:15.266Z,22.54
2022-12-06T08:46:43.819Z,22.54
2022-12-06T08:49:13.968Z,22.54
2022-12-06T08:51:42.637Z,22.57
2022-12-06T08:54:14.229Z,22.57
2022-12-06T08:56:42.794Z,22.55
2022-12-06T08:59:11.376Z,22.56
2022-12-06T09:01:40.107Z,22.55
2022-12-06T09:04:09.798Z,22.56
2022-12-06T09:06:40.954Z,22.56
2022-12-06T09:09:10.070Z,22.55
2022-12-06T09:11:38.997Z,22.56
2022-12-06T09:14:09.198Z,22.55
2022-12-06T09:16:38.059Z,22.55
2022-12-06T09:19:06.536Z,22.54
2022-12-06T09:21:35.135Z,22.55
2022-12-06T09:24:05.431Z,22.55
2022-12-06T09:26:34.143Z,22.53
2022-12-06T09:29:02.594Z,22.54
2022-12-06T09:31:31.182Z,22.53
2022-12-06T09:33:59.650Z,22.54
2022-12-06T09:36:29.002Z,22.55
2022-12-06T09:39:00.815Z,22.53
2022-12-06T09:41:54.932Z,22.53
2022-12-06T09:44:39.659Z,22.53
2022-12-06T09:47:16.573Z,22.53
2022-12-06T09:49:50.185Z,22.54
2022-12-06T09:52:34.654Z,22.53
2022-12-06T09:55:16.980Z,22.51
2022-12-06T09:57:51.530Z,22.53
2022-12-06T10:00:23.171Z,22.53
2022-12-06T10:03:29.130Z,22.53
2022-12-06T10:06:02.888Z,22.52
2022-12-06T10:09:10.070Z,22.52
2022-12-06T10:11:56.744Z,22.52
2022-12-06T10:14:39.220Z,22.51
2022-12-06T10:17:13.403Z,22.52
2022-12-06T10:19:51.740Z,22.52
2022-12-06T10:22:26.449Z,22.52
2022-12-06T10:25:00.977Z,22.51
2022-12-06T10:27:35.581Z,22.52
2022-12-06T10:30:06.689Z,22.49
2022-12-06T10:32:51.485Z,22.50
2022-12-06T10:35:26.008Z,22.49
2022-12-06T10:38:05.062Z,22.49
2022-12-06T10:40:46.424Z,22.48
2022-12-06T10:43:18.884Z,22.48
2022-12-06T10:46:14.311Z,22.48
2022-12-06T10:48:45.470Z,22.49
2022-12-06T10:51:16.360Z,22.49
2022-12-06T10:53:48.259Z,22.49
2022-12-06T10:56:18.510Z,22.50
2022-12-06T10:58:50.593Z,22.49
2022-12-06T11:01:21.457Z,22.49
2022-12-06T11:03:57.040Z,22.48
2022-12-06T11:06:32.323Z,22.49
2022-12-06T11:09:06.037Z,22.48
2022-12-06T11:11:36.461Z,22.48
2022-12-06T11:14:07.698Z,22.48
2022-12-06T11:16:40.392Z,22.47
2022-12-06T11:19:20.673Z,22.48
2022-12-06T11:21:53.624Z,22.48
2022-12-06T11:24:26.846Z,22.48
2022-12-06T11:27:00.351Z,22.48
2022-12-06T11:29:29.212Z,22.48
2022-12-06T11:32:00.879Z,22.47
2022-12-06T11:34:32.773Z,22.48
2022-12-06T11:37:01.287Z,22.48
2022-12-06T11:39:30.139Z,22.47
2022-12-06T11:42:00.793Z,22.47
2022-12-06T11:44:44.950Z,22.47
2022-12-06T11:47:21.834Z,22.47
2022-12-06T11:49:51.093Z,22.47
2022-12-06T11:52:23.234Z,22.48
2022-12-06T11:54:55.822Z,22.47
2022-12-06T11:57:26.770Z,22.47
2022-12-06T12:00:18.017Z,22.47
2022-12-06T12:02:49.566Z,22.46
2022-12-06T12:05:22.432Z,22.47
2022-12-06T12:07:55.397Z,22.49
2022-12-06T12:10:34.653Z,22.49
2022-12-06T12:13:36.151Z,22.48
2022-12-06T12:16:07.430Z,22.48
2022-12-06T12:18:38.640Z,22.50
2022-12-06T12:21:07.783Z,22.49
2022-12-06T12:23:39.498Z,22.49
2022-12-06T12:26:13.457Z,22.50
2022-12-06T12:28:42.155Z,22.50
2022-12-06T12:31:11.953Z,22.55
2022-12-06T12:33:41.883Z,22.53
2022-12-06T12:36:16.636Z,22.54
2022-12-06T12:38:52.132Z,22.55
2022-12-06T12:41:29.756Z,22.54
2022-12-06T12:44:28.820Z,22.52
2022-12-06T12:46:52.359Z,22.54
2022-12-06T12:49:30.282Z,22.54
2022-12-06T12:51:59.105Z,22.53
2022-12-06T12:54:32.812Z,22.54
2022-12-06T12:57:02.639Z,22.54
2022-12-06T12:59:36.789Z,22.53
2022-12-06T13:02:12.823Z,22.56
2022-12-06T13:04:44.438Z,22.55
2022-12-06T13:07:18.893Z,22.54
2022-12-06T13:09:54.766Z,22.54
2022-12-06T13:12:29.337Z,22.55
2022-12-06T13:15:01.612Z,22.54
2022-12-06T13:17:30.584Z,22.54
2022-12-06T13:20:00.892Z,22.54
2022-12-06T13:22:32.305Z,22.55
2022-12-06T13:25:02.960Z,22.57
2022-12-06T13:27:35.168Z,22.57
2022-12-06T13:30:05.986Z,22.60
2022-12-06T13:32:38.896Z,22.58
2022-12-06T13:35:19.301Z,22.60
2022-12-06T13:37:53.245Z,22.59
2022-12-06T13:40:49.556Z,22.56
2022-12-06T13:44:00.433Z,22.56
2022-12-06T13:46:33.723Z,22.56
2022-12-06T13:49:21.964Z,22.56
2022-12-06T13:51:51.857Z,22.56
2022-12-06T13:54:38.138Z,22.57
2022-12-06T13:57:27.312Z,22.55
2022-12-06T13:59:55.944Z,22.56
2022-12-06T14:02:51.683Z,22.55
2022-12-06T14:06:05.995Z,22.55
2022-12-06T14:08:40.770Z,22.56
2022-12-06T14:11:20.677Z,22.55
2022-12-06T14:13:50.820Z,22.55
2022-12-06T14:16:23.531Z,22.55
2022-12-06T14:18:52.131Z,22.56
2022-12-06T14:21:27.566Z,22.55
2022-12-06T14:23:57.600Z,22.54
2022-12-06T14:26:27.514Z,22.54
2022-12-06T14:28:57.210Z,22.54
2022-12-06T14:31:29.326Z,22.54
2022-12-06T14:33:58.112Z,22.54
2022-12-06T14:36:29.526Z,22.53
2022-12-06T14:39:02.696Z,22.55
2022-12-06T14:41:51.506Z,22.52
2022-12-06T14:44:20.787Z,22.55
2022-12-06T14:46:50.176Z,22.57
2022-12-06T14:49:38.882Z,22.58
2022-12-06T14:52:25.556Z,22.55
2022-12-06T14:55:17.654Z,22.55
2022-12-06T14:57:47.252Z,22.56
2022-12-06T15:00:26.477Z,22.56
2022-12-06T15:03:29.246Z,22.57
2022-12-06T15:06:14.089Z,22.58
2022-12-06T15:08:43.155Z,22.57
2022-12-06T15:11:48.957Z,22.56
2022-12-06T15:14:19.090Z,22.57
2022-12-06T15:16:57.273Z,22.56
2022-12-06T15:19:25.888Z,22.56
2022-12-06T15:21:54.607Z,22.56
2022-12-06T15:24:24.214Z,22.57
2022-12-06T15:26:54.227Z,22.56
2022-12-06T15:29:22.873Z,22.57
2022-12-06T15:31:54.212Z,22.58
2022-12-06T15:34:28.007Z,22.58
2022-12-06T15:37:29.878Z,22.57
2022-12-06T15:39:45.205Z,22.57
2022-12-06T15:42:20.823Z,22.60
2022-12-06T15:44:50.215Z,22.61
2022-12-06T15:47:19.835Z,22.59
2022-12-06T15:49:51.120Z,22.61
2022-12-06T15:52:23.198Z,22.64
2022-12-06T15:54:52.153Z,22.65
2022-12-06T15:57:22.038Z,22.63
2022-12-06T15:59:50.662Z,22.65
2022-12-06T16:02:19.685Z,22.64
2022-12-06T16:04:51.086Z,22.66
2022-12-06T16:07:19.855Z,22.62
2022-12-06T16:09:49.057Z,22.62
2022-12-06T16:12:17.674Z,22.61
2022-12-06T16:14:47.954Z,22.61
2022-12-06T16:17:16.511Z,22.57
2022-12-06T16:20:02.305Z,22.60
2022-12-06T16:22:48.156Z,22.63
2022-12-06T16:25:16.721Z,22.62
2022-12-06T16:27:45.289Z,22.62
2022-12-06T16:30:16.627Z,22.61
2022-12-06T16:32:45.087Z,22.59
2022-12-06T16:35:13.539Z,22.60
2022-12-06T16:37:41.991Z,22.60
2022-12-06T16:40:14.295Z,22.60
2022-12-06T16:42:42.839Z,22.61
2022-12-06T16:45:12.364Z,22.59
2022-12-06T16:47:42.255Z,22.60
2022-12-06T16:50:11.501Z,22.61
2022-12-06T16:55:38.609Z,22.61
2022-12-06T16:58:07.759Z,22.61
2022-12-06T17:00:36.378Z,22.62
2022-12-06T17:03:06.418Z,22.60
2022-12-06T17:05:35.230Z,22.61
2022-12-06T17:08:03.995Z,22.60
2022-12-06T17:10:32.772Z,22.61
2022-12-06T17:13:02.139Z,22.60
2022-12-06T17:15:30.755Z,22.60
2022-12-06T17:17:59.285Z,22.61
2022-12-06T17:20:29.267Z,22.61
2022-12-06T17:22:58.458Z,22.60
2022-12-06T17:25:26.937Z,22.59
2022-12-06T17:27:55.615Z,22.61
2022-12-06T17:30:24.179Z,22.60
2022-12-06T17:32:52.710Z,22.60
2022-12-06T17:35:21.238Z,22.59
2022-12-06T17:37:52.958Z,22.58
2022-12-06T17:40:21.683Z,22.59
2022-12-06T17:43:01.424Z,22.61
2022-12-06T17:45:30.150Z,22.61
2022-12-06T17:47:58.824Z,22.60
2022-12-06T17:50:27.588Z,22.60
2022-12-06T17:56:26.757Z,22.60
2022-12-06T17:58:55.976Z,22.64
2022-12-06T18:01:24.727Z,22.59
2022-12-06T18:03:53.759Z,22.59
2022-12-06T18:06:22.838Z,22.58
2022-12-06T18:08:51.466Z,22.59
2022-12-06T18:11:20.049Z,22.58
2022-12-06T18:13:50.153Z,22.57
2022-12-06T18:16:20.340Z,22.58
2022-12-06T18:18:50.183Z,22.58
2022-12-06T18:21:18.986Z,22.57
2022-12-06T18:24:13.082Z,22.59
2022-12-06T18:26:36.789Z,22.59
2022-12-06T18:29:07.753Z,22.61
2022-12-06T18:31:37.071Z,22.60
2022-12-06T18:34:05.878Z,22.58
2022-12-06T18:36:34.680Z,22.59
2022-12-06T18:39:07.358Z,22.58
2022-12-06T18:41:38.169Z,22.58
2022-12-06T18:44:08.308Z,22.58
2022-12-06T18:46:38.057Z,22.58
2022-12-06T18:49:06.832Z,22.59
2022-12-06T18:51:36.524Z,22.60
2022-12-06T18:54:05.522Z,22.59
2022-12-06T18:56:34.482Z,22.59
2022-12-06T18:59:05.483Z,22.56
2022-12-06T19:01:37.209Z,22.59
2022-12-06T19:04:06.618Z,22.58
2022-12-06T19:06:36.801Z,22.59
2022-12-06T19:09:09.544Z,22.62
2022-12-06T19:11:39.475Z,22.61
2022-12-06T19:14:08.634Z,22.63
2022-12-06T19:16:40.873Z,22.63
2022-12-06T19:19:16.119Z,22.65
2022-12-06T19:21:45.743Z,22.64
2022-12-06T19:24:16.765Z,22.64
2022-12-06T19:26:45.754Z,22.63
2022-12-06T19:29:14.727Z,22.65
2022-12-06T19:31:44.717Z,22.63
2022-12-06T19:34:17.435Z,22.64
2022-12-06T19:36:46.216Z,22.64
2022-12-06T19:39:15.139Z,22.63
2022-12-06T19:42:01.141Z,22.64
2022-12-06T19:44:30.484Z,22.64
2022-12-06T19:47:00.401Z,22.63
2022-12-06T19:49:29.416Z,22.64
2022-12-06T19:51:58.103Z,22.62
2022-12-06T19:54:28.117Z,22.63
2022-12-06T19:56:58.353Z,22.64
2022-12-06T19:59:31.424Z,22.64
2022-12-06T20:02:01.551Z,22.63
2022-12-06T20:04:31.566Z,22.64
2022-12-06T20:07:00.196Z,22.62
2022-12-06T20:09:30.911Z,22.63
2022-12-06T20:12:03.764Z,22.65
2022-12-06T20:14:36.878Z,22.65
2022-12-06T20:17:08.349Z,22.68
2022-12-06T20:19:37.407Z,22.69
2022-12-06T20:22:05.848Z,22.65
2022-12-06T20:29:32.781Z,22.65
2022-12-06T20:32:01.799Z,22.64
2022-12-06T20:34:34.565Z,22.66
2022-12-06T20:37:04.786Z,22.65
2022-12-06T20:39:35.517Z,22.65
2022-12-06T20:42:06.042Z,22.64
2022-12-06T20:44:35.009Z,22.58
2022-12-06T20:47:03.699Z,22.63
2022-12-06T20:49:33.752Z,22.64
2022-12-06T20:52:03.731Z,22.62
2022-12-06T20:54:32.343Z,22.63
2022-12-06T20:57:02.067Z,22.61
2022-12-06T20:59:30.541Z,22.62
2022-12-06T21:01:59.150Z,22.62
2022-12-06T21:04:28.086Z,22.62
2022-12-06T21:06:58.367Z,22.62
2022-12-06T21:09:27.258Z,22.62
2022-12-06T21:11:58.033Z,22.63
2022-12-06T21:14:26.620Z,22.62
2022-12-06T21:16:55.636Z,22.62
2022-12-06T21:19:24.588Z,22.62
2022-12-06T21:21:57.265Z,22.61
2022-12-06T21:24:27.388Z,22.61
2022-12-06T21:26:56.196Z,22.60
2022-12-06T21:29:30.869Z,22.60
2022-12-06T21:32:02.286Z,22.60
2022-12-06T21:34:30.983Z,22.59
2022-12-06T21:36:59.972Z,22.59
2022-12-06T21:39:29.943Z,22.60
2022-12-06T21:41:58.675Z,22.61
2022-12-06T21:44:27.524Z,22.59
2022-12-06T21:46:56.181Z,22.60
2022-12-06T21:49:25.015Z,22.61
2022-12-06T21:52:00.340Z,22.61
2022-12-06T21:54:33.261Z,22.63
2022-12-06T21:57:02.041Z,22.62
2022-12-06T21:59:30.765Z,22.62
2022-12-06T22:01:59.543Z,22.62
2022-12-06T22:04:28.196Z,22.62
2022-12-06T22:06:57.331Z,22.61
2022-12-06T22:09:25.927Z,22.61
2022-12-06T22:11:56.000Z,22.61
2022-12-06T22:14:24.555Z,22.61
2022-12-06T22:16:53.162Z,22.61
2022-12-06T22:19:21.850Z,22.61
2022-12-06T22:21:50.430Z,22.58
2022-12-06T22:24:18.874Z,22.61
2022-12-06T22:26:47.595Z,22.61
2022-12-06T22:29:17.408Z,22.61
2022-12-06T22:31:46.209Z,22.56
2022-12-06T22:34:14.771Z,22.57
2022-12-06T22:36:43.286Z,22.55
2022-12-06T22:39:12.011Z,22.56
2022-12-06T22:41:40.589Z,22.55
2022-12-06T22:44:09.118Z,22.54
2022-12-06T22:46:39.269Z,22.54
2022-12-06T22:49:07.924Z,22.53
2022-12-06T22:51:37.976Z,22.52
2022-12-06T22:54:07.956Z,22.52
2022-12-06T22:56:36.667Z,22.52
2022-12-06T22:59:05.133Z,22.51
2022-12-06T23:01:35.372Z,22.52
2022-12-06T23:04:06.922Z,22.50
2022-12-06T23:06:36.152Z,22.53
2022-12-06T23:09:07.825Z,22.54
2022-12-06T23:11:37.329Z,22.54
2022-12-06T23:14:07.759Z,22.55
2022-12-06T23:16:36.603Z,22.54
2022-12-06T23:19:06.713Z,22.56
2022-12-06T23:21:36.285Z,22.55
2022-12-06T23:24:07.694Z,22.56
2022-12-06T23:26:37.762Z,22.57
2022-12-06T23:29:06.741Z,22.57
2022-12-06T23:31:36.755Z,22.56
2022-12-06T23:34:07.988Z,22.57
2022-12-06T23:36:37.156Z,22.57
2022-12-06T23:39:06.480Z,22.57
2022-12-06T23:41:37.267Z,22.56
2022-12-06T23:44:06.366Z,22.57
2022-12-06T23:46:36.869Z,22.56
2022-12-06T23:49:07.388Z,22.56
2022-12-06T23:51:37.221Z,22.56
2022-12-06T23:54:07.525Z,22.56
2022-12-06T23:56:37.376Z,22.56
2022-12-06T23:59:06.889Z,22.57
